Aviation Digital Data Service (ADDS)

Output produced by METARs form (1847 UTC 28 September 2016)
found at http://www.aviationweather.gov/adds/metars/
 
KMIV 281754Z AUTO 07009KT 10SM SCT095 SCT120 21/19 A3003 RMK AO2 RAE09 SLP168 P0000 60010 T02060194 10217 20161 58003
KMIV 281739Z 2818/2918 10013KT P6SM VCSH BKN035 OVC110 
     TEMPO 2819/2823 4SM SHRA BKN025 
     FM282300 08011G19KT 6SM -RADZ OVC018 
     FM290200 07011G19KT 4SM -RADZ BR OVC007 
     FM291400 07013G23KT P6SM VCSH OVC015